DLH141 LFBO-EDDF
Flight info
| Callsign | DLH141 |
|---|---|
| Flight time | N/A |
| Altitude | 36000 |
| Route | FISTO DCT PERIG DCT ADABI DCT BOKNO UN858 OQQAL DCT RANUX/N0475F350 DCT VALEK DCT LIPNI UN858 LIMGO Z111 OBIGA/N0410F230 Z111 RAMOB IMCOM1B |
| Aircraft | A343/H-SDE2E3FGHIJ4J5M1RWXY/LB1D1 |
Departure
| Time | N/A |
|---|---|
| Airport | Toulouse-Blagnac Airport (LFBO) |
Arrival
| Time | 2026-04-17 13:21 |
|---|---|
| Airport | Frankfurt Main Airport (EDDF) |
| Time | Latitude | Longitude | Altitude | Speed | Heading |
|---|---|---|---|---|---|
| 2026-04-17 11:58 | 44.64324 | 1.15662 | 30100 ft | 461 kts | 341° |
| 2026-04-17 11:58 | 44.67419 | 1.14432 | 30444 ft | 464 kts | 341° |
| 2026-04-17 11:58 | 44.70540 | 1.13201 | 30742 ft | 468 kts | 341° |
| 2026-04-17 11:58 | 44.73680 | 1.11967 | 31078 ft | 470 kts | 341° |
| 2026-04-17 11:59 | 44.76833 | 1.10731 | 31470 ft | 471 kts | 341° |
| 2026-04-17 11:59 | 44.79986 | 1.09496 | 31976 ft | 469 kts | 341° |
| 2026-04-17 11:59 | 44.83120 | 1.08267 | 32486 ft | 467 kts | 341° |
| 2026-04-17 11:59 | 44.86243 | 1.07040 | 32970 ft | 465 kts | 340° |
| 2026-04-17 12:00 | 44.89349 | 1.05817 | 33457 ft | 463 kts | 340° |
| 2026-04-17 12:00 | 44.92445 | 1.04595 | 33942 ft | 461 kts | 340° |
| 2026-04-17 12:00 | 44.95535 | 1.03374 | 34388 ft | 460 kts | 340° |
| 2026-04-17 12:00 | 44.98613 | 1.02157 | 34776 ft | 459 kts | 340° |
| 2026-04-17 12:01 | 45.01680 | 1.00942 | 35196 ft | 457 kts | 340° |
| 2026-04-17 12:01 | 45.04737 | 0.99730 | 35581 ft | 456 kts | 340° |
| 2026-04-17 12:01 | 45.07785 | 0.98520 | 35951 ft | 455 kts | 340° |
| 2026-04-17 12:01 | 45.10838 | 0.97305 | 36166 ft | 457 kts | 340° |
| 2026-04-17 12:02 | 45.16980 | 0.95136 | 36186 ft | 454 kts | 344° |
| 2026-04-17 12:02 | 45.23173 | 0.93414 | 36184 ft | 453 kts | 345° |
| 2026-04-17 12:03 | 45.29323 | 0.91698 | 36182 ft | 453 kts | 344° |
| 2026-04-17 12:03 | 45.35494 | 0.89895 | 36183 ft | 453 kts | 343° |
| 2026-04-17 12:04 | 45.41662 | 0.88053 | 36190 ft | 453 kts | 343° |
| 2026-04-17 12:04 | 45.47828 | 0.86200 | 36190 ft | 453 kts | 343° |
| 2026-04-17 12:05 | 45.53997 | 0.84347 | 36194 ft | 453 kts | 343° |
| 2026-04-17 12:05 | 45.60168 | 0.82491 | 36199 ft | 453 kts | 343° |
| 2026-04-17 12:06 | 45.66345 | 0.80628 | 36204 ft | 454 kts | 343° |
| 2026-04-17 12:06 | 45.72531 | 0.78761 | 36208 ft | 454 kts | 343° |
| 2026-04-17 12:07 | 45.78721 | 0.76887 | 36201 ft | 455 kts | 343° |
| 2026-04-17 12:07 | 45.84926 | 0.75002 | 36209 ft | 457 kts | 343° |
| 2026-04-17 12:08 | 45.91145 | 0.73111 | 36205 ft | 457 kts | 343° |
| 2026-04-17 12:08 | 45.97368 | 0.71215 | 36221 ft | 457 kts | 344° |
| 2026-04-17 12:09 | 46.03594 | 0.69312 | 36205 ft | 458 kts | 343° |
| 2026-04-17 12:09 | 46.09832 | 0.67402 | 36205 ft | 458 kts | 343° |
| 2026-04-17 12:10 | 46.16071 | 0.65487 | 36205 ft | 458 kts | 343° |
| 2026-04-17 12:10 | 46.22281 | 0.63575 | 36203 ft | 460 kts | 344° |
| 2026-04-17 12:11 | 46.28546 | 0.61643 | 36206 ft | 461 kts | 344° |
| 2026-04-17 12:12 | 46.37945 | 0.58737 | 36207 ft | 461 kts | 344° |
| 2026-04-17 12:12 | 46.44228 | 0.56787 | 36194 ft | 462 kts | 344° |
| 2026-04-17 12:13 | 46.50520 | 0.54831 | 36191 ft | 462 kts | 344° |
| 2026-04-17 12:13 | 46.56941 | 0.53912 | 36204 ft | 470 kts | 359° |
| 2026-04-17 12:14 | 46.63442 | 0.55397 | 36190 ft | 475 kts | 8° |
| 2026-04-17 12:14 | 46.69907 | 0.57503 | 36193 ft | 477 kts | 10° |
| 2026-04-17 12:15 | 46.76363 | 0.59705 | 36200 ft | 477 kts | 10° |
| 2026-04-17 12:15 | 46.82826 | 0.61881 | 36207 ft | 477 kts | 9° |
| 2026-04-17 12:16 | 46.89247 | 0.64019 | 36211 ft | 477 kts | 9° |
| 2026-04-17 12:16 | 46.95713 | 0.66167 | 36209 ft | 477 kts | 9° |
| 2026-04-17 12:17 | 47.02185 | 0.68321 | 36211 ft | 477 kts | 10° |
| 2026-04-17 12:17 | 47.08725 | 0.69566 | 36214 ft | 474 kts | 2° |
| 2026-04-17 12:18 | 47.15297 | 0.70313 | 36215 ft | 473 kts | 1° |
| 2026-04-17 12:18 | 47.21870 | 0.70976 | 36214 ft | 474 kts | 1° |
| 2026-04-17 12:19 | 47.28449 | 0.71645 | 36211 ft | 474 kts | 1° |
| 2026-04-17 12:19 | 47.35034 | 0.72329 | 36210 ft | 474 kts | 1° |
| 2026-04-17 12:20 | 47.40502 | 0.72903 | 36215 ft | 474 kts | 1° |
| 2026-04-17 12:20 | 47.47089 | 0.73626 | 36208 ft | 476 kts | 4° |
| 2026-04-17 12:21 | 47.53565 | 0.75839 | 36211 ft | 479 kts | 14° |
| 2026-04-17 12:21 | 47.59924 | 0.78859 | 36222 ft | 480 kts | 16° |
| 2026-04-17 12:22 | 47.66259 | 0.82021 | 36215 ft | 480 kts | 16° |
| 2026-04-17 12:22 | 47.72594 | 0.85187 | 36212 ft | 480 kts | 16° |
| 2026-04-17 12:23 | 47.85292 | 0.92271 | 36214 ft | 481 kts | 27° |
| 2026-04-17 12:24 | 47.91081 | 0.97276 | 36214 ft | 482 kts | 29° |
| 2026-04-17 12:24 | 47.96803 | 1.02481 | 36210 ft | 482 kts | 30° |
| 2026-04-17 12:25 | 48.02367 | 1.07579 | 36204 ft | 482 kts | 30° |
| 2026-04-17 12:25 | 48.08091 | 1.12813 | 36220 ft | 483 kts | 30° |
| 2026-04-17 12:26 | 48.13825 | 1.18052 | 36210 ft | 483 kts | 30° |
| 2026-04-17 12:26 | 48.19554 | 1.23298 | 36203 ft | 483 kts | 30° |
| 2026-04-17 12:27 | 48.25284 | 1.28558 | 36204 ft | 484 kts | 30° |
| 2026-04-17 12:27 | 48.31011 | 1.33830 | 36212 ft | 481 kts | 30° |
| 2026-04-17 12:28 | 48.36706 | 1.39089 | 36212 ft | 480 kts | 30° |
| 2026-04-17 12:28 | 48.42362 | 1.44324 | 36208 ft | 480 kts | 30° |
| 2026-04-17 12:29 | 48.48055 | 1.49608 | 36216 ft | 481 kts | 30° |
| 2026-04-17 12:29 | 48.53747 | 1.54905 | 36219 ft | 481 kts | 30° |
| 2026-04-17 12:30 | 48.59412 | 1.60289 | 36216 ft | 482 kts | 34° |
| 2026-04-17 12:30 | 48.64215 | 1.67361 | 36235 ft | 485 kts | 53° |
| 2026-04-17 12:30 | 48.65955 | 1.71721 | 36228 ft | 486 kts | 64° |
| 2026-04-17 12:31 | 48.67297 | 1.76422 | 36221 ft | 486 kts | 68° |
| 2026-04-17 12:31 | 48.69664 | 1.86001 | 36236 ft | 486 kts | 70° |
| 2026-04-17 12:32 | 48.71923 | 1.95642 | 36237 ft | 486 kts | 70° |
| 2026-04-17 12:32 | 48.74200 | 2.05277 | 36243 ft | 486 kts | 69° |
| 2026-04-17 12:33 | 48.76433 | 2.14935 | 36245 ft | 486 kts | 72° |
| 2026-04-17 12:33 | 48.78203 | 2.24821 | 36237 ft | 486 kts | 75° |
| 2026-04-17 12:34 | 48.79860 | 2.34746 | 36214 ft | 486 kts | 75° |
| 2026-04-17 12:34 | 48.81572 | 2.44652 | 36215 ft | 485 kts | 74° |
| 2026-04-17 12:35 | 48.83321 | 2.54544 | 36212 ft | 485 kts | 74° |
| 2026-04-17 12:35 | 48.85074 | 2.64437 | 36212 ft | 485 kts | 74° |
| 2026-04-17 12:37 | 48.91958 | 3.03914 | 36226 ft | 483 kts | 74° |
| 2026-04-17 12:38 | 48.93654 | 3.13792 | 36224 ft | 482 kts | 74° |
| 2026-04-17 12:38 | 48.95339 | 3.23658 | 36225 ft | 481 kts | 74° |
| 2026-04-17 12:39 | 48.97106 | 3.34057 | 36229 ft | 481 kts | 74° |
| 2026-04-17 12:39 | 48.98773 | 3.43927 | 36231 ft | 481 kts | 74° |
| 2026-04-17 12:40 | 49.00432 | 3.53805 | 36229 ft | 482 kts | 74° |
| 2026-04-17 12:40 | 49.02082 | 3.63691 | 36233 ft | 481 kts | 74° |
| 2026-04-17 12:41 | 49.03721 | 3.73571 | 36226 ft | 481 kts | 74° |
| 2026-04-17 12:41 | 49.05353 | 3.83459 | 36221 ft | 481 kts | 74° |
| 2026-04-17 12:42 | 49.06964 | 3.93280 | 36214 ft | 481 kts | 75° |
| 2026-04-17 12:42 | 49.08577 | 4.03174 | 36213 ft | 481 kts | 75° |
| 2026-04-17 12:43 | 49.10184 | 4.13080 | 36215 ft | 481 kts | 75° |
| 2026-04-17 12:43 | 49.11781 | 4.22989 | 36207 ft | 481 kts | 75° |
| 2026-04-17 12:44 | 49.13375 | 4.32912 | 36211 ft | 481 kts | 74° |
| 2026-04-17 12:44 | 49.15610 | 4.42494 | 36224 ft | 479 kts | 66° |
| 2026-04-17 12:45 | 49.18133 | 4.51911 | 36219 ft | 479 kts | 65° |
| 2026-04-17 12:45 | 49.20698 | 4.61312 | 36228 ft | 479 kts | 65° |
| 2026-04-17 12:46 | 49.23246 | 4.70716 | 36229 ft | 479 kts | 65° |
| 2026-04-17 12:46 | 49.25779 | 4.80144 | 36228 ft | 479 kts | 65° |
| 2026-04-17 12:47 | 49.28298 | 4.89579 | 36234 ft | 479 kts | 65° |
| 2026-04-17 12:47 | 49.30387 | 4.97428 | 36229 ft | 479 kts | 65° |
| 2026-04-17 12:48 | 49.32895 | 5.06888 | 36224 ft | 479 kts | 65° |
| 2026-04-17 12:48 | 49.35397 | 5.16362 | 36225 ft | 479 kts | 66° |
| 2026-04-17 12:49 | 49.37890 | 5.25841 | 36225 ft | 479 kts | 66° |
| 2026-04-17 12:49 | 49.40377 | 5.35334 | 36232 ft | 479 kts | 66° |
| 2026-04-17 12:50 | 49.42856 | 5.44834 | 36224 ft | 479 kts | 66° |
| 2026-04-17 12:50 | 49.45322 | 5.54326 | 36225 ft | 478 kts | 66° |
| 2026-04-17 12:51 | 49.47781 | 5.63832 | 36219 ft | 478 kts | 66° |
| 2026-04-17 12:51 | 49.50232 | 5.73348 | 36218 ft | 478 kts | 66° |
| 2026-04-17 12:52 | 49.52658 | 5.82873 | 36064 ft | 478 kts | 67° |
| 2026-04-17 12:52 | 49.53824 | 5.87669 | 35813 ft | 480 kts | 67° |
| 2026-04-17 12:52 | 49.54997 | 5.92496 | 35561 ft | 481 kts | 67° |
| 2026-04-17 12:52 | 49.56174 | 5.97320 | 35312 ft | 482 kts | 66° |
| 2026-04-17 12:53 | 49.57357 | 6.02145 | 35066 ft | 482 kts | 66° |
| 2026-04-17 12:53 | 49.58544 | 6.06977 | 34736 ft | 482 kts | 66° |
| 2026-04-17 12:53 | 49.59730 | 6.11808 | 34200 ft | 481 kts | 66° |
| 2026-04-17 12:53 | 49.60907 | 6.16608 | 33577 ft | 478 kts | 66° |
| 2026-04-17 12:54 | 49.62082 | 6.21407 | 32947 ft | 479 kts | 67° |
| 2026-04-17 12:54 | 49.63297 | 6.26202 | 32346 ft | 479 kts | 64° |
| 2026-04-17 12:54 | 49.64811 | 6.30774 | 31765 ft | 478 kts | 58° |
| 2026-04-17 12:54 | 49.66448 | 6.35242 | 31172 ft | 479 kts | 57° |
| 2026-04-17 12:55 | 49.68129 | 6.39687 | 30618 ft | 479 kts | 57° |
| 2026-04-17 12:55 | 49.69827 | 6.44105 | 30035 ft | 479 kts | 57° |
| 2026-04-17 12:55 | 49.71534 | 6.48522 | 29366 ft | 479 kts | 57° |
| 2026-04-17 12:55 | 49.73360 | 6.52789 | 28730 ft | 473 kts | 52° |
| 2026-04-17 12:56 | 49.75303 | 6.56868 | 28112 ft | 469 kts | 51° |
| 2026-04-17 12:56 | 49.77253 | 6.60880 | 27497 ft | 465 kts | 51° |
| 2026-04-17 12:56 | 49.79204 | 6.64849 | 26920 ft | 462 kts | 51° |
| 2026-04-17 12:56 | 49.81148 | 6.68789 | 26327 ft | 459 kts | 51° |
| 2026-04-17 12:57 | 49.83078 | 6.72704 | 25760 ft | 456 kts | 51° |
| 2026-04-17 12:57 | 49.84991 | 6.76594 | 25213 ft | 453 kts | 51° |
| 2026-04-17 12:57 | 49.86893 | 6.80473 | 24652 ft | 450 kts | 51° |
| 2026-04-17 12:57 | 49.88776 | 6.84324 | 24118 ft | 447 kts | 51° |
| 2026-04-17 12:58 | 49.90649 | 6.88161 | 23604 ft | 444 kts | 52° |
| 2026-04-17 12:58 | 49.92508 | 6.91980 | 23075 ft | 442 kts | 52° |
| 2026-04-17 12:58 | 49.94351 | 6.95773 | 22539 ft | 439 kts | 52° |
| 2026-04-17 12:58 | 49.96180 | 6.99542 | 22018 ft | 435 kts | 52° |
| 2026-04-17 12:59 | 49.97994 | 7.03285 | 21508 ft | 431 kts | 52° |
| 2026-04-17 12:59 | 49.99789 | 7.06994 | 21013 ft | 429 kts | 52° |
| 2026-04-17 12:59 | 50.01556 | 7.10710 | 20499 ft | 426 kts | 54° |
| 2026-04-17 12:59 | 50.02951 | 7.14751 | 20022 ft | 424 kts | 68° |
| 2026-04-17 13:00 | 50.03893 | 7.19087 | 19538 ft | 421 kts | 73° |
| 2026-04-17 13:00 | 50.04655 | 7.23469 | 19061 ft | 419 kts | 76° |
| 2026-04-17 13:00 | 50.05319 | 7.27864 | 18595 ft | 416 kts | 77° |
| 2026-04-17 13:00 | 50.05939 | 7.32244 | 18076 ft | 413 kts | 78° |
| 2026-04-17 13:01 | 50.06543 | 7.36586 | 17546 ft | 408 kts | 78° |
| 2026-04-17 13:01 | 50.07147 | 7.40883 | 17021 ft | 404 kts | 77° |
| 2026-04-17 13:01 | 50.07746 | 7.45077 | 16529 ft | 401 kts | 77° |
| 2026-04-17 13:01 | 50.08356 | 7.49293 | 16016 ft | 398 kts | 77° |
| 2026-04-17 13:02 | 50.08966 | 7.53476 | 15510 ft | 395 kts | 77° |
| 2026-04-17 13:02 | 50.09575 | 7.57635 | 15026 ft | 392 kts | 77° |
| 2026-04-17 13:02 | 50.10168 | 7.61752 | 14547 ft | 389 kts | 78° |
| 2026-04-17 13:02 | 50.10413 | 7.65922 | 14073 ft | 386 kts | 92° |
| 2026-04-17 13:03 | 50.09951 | 7.69999 | 13541 ft | 381 kts | 110° |
| 2026-04-17 13:03 | 50.08768 | 7.73650 | 13041 ft | 376 kts | 123° |
| 2026-04-17 13:03 | 50.07326 | 7.77014 | 12518 ft | 372 kts | 126° |
| 2026-04-17 13:03 | 50.05902 | 7.80370 | 11997 ft | 370 kts | 120° |
| 2026-04-17 13:04 | 50.04930 | 7.84051 | 11515 ft | 367 kts | 106° |
| 2026-04-17 13:04 | 50.04312 | 7.87898 | 11246 ft | 366 kts | 103° |
| 2026-04-17 13:04 | 50.03742 | 7.91741 | 11204 ft | 364 kts | 103° |
| 2026-04-17 13:04 | 50.03174 | 7.95577 | 11208 ft | 363 kts | 103° |
| 2026-04-17 13:05 | 50.02618 | 7.99354 | 11202 ft | 348 kts | 103° |
| 2026-04-17 13:05 | 50.02096 | 8.02902 | 11210 ft | 327 kts | 103° |
| 2026-04-17 13:05 | 50.01601 | 8.06263 | 11206 ft | 310 kts | 103° |
| 2026-04-17 13:05 | 50.01129 | 8.09472 | 11208 ft | 301 kts | 103° |
| 2026-04-17 13:06 | 50.00664 | 8.12640 | 11211 ft | 301 kts | 103° |
| 2026-04-17 13:06 | 50.00322 | 8.15842 | 11083 ft | 298 kts | 96° |
| 2026-04-17 13:06 | 50.00173 | 8.19036 | 10754 ft | 296 kts | 94° |
| 2026-04-17 13:06 | 50.00061 | 8.22231 | 10388 ft | 296 kts | 93° |
| 2026-04-17 13:07 | 49.99961 | 8.25419 | 10230 ft | 294 kts | 94° |
| 2026-04-17 13:07 | 49.99865 | 8.28586 | 10209 ft | 293 kts | 93° |
| 2026-04-17 13:07 | 49.99767 | 8.31751 | 10213 ft | 293 kts | 93° |
| 2026-04-17 13:07 | 49.99673 | 8.34907 | 10210 ft | 293 kts | 94° |
| 2026-04-17 13:08 | 49.99581 | 8.38064 | 10209 ft | 293 kts | 93° |
| 2026-04-17 13:08 | 49.99484 | 8.41219 | 10208 ft | 292 kts | 94° |
| 2026-04-17 13:08 | 49.99389 | 8.44377 | 10181 ft | 292 kts | 94° |
| 2026-04-17 13:08 | 49.99296 | 8.47535 | 10185 ft | 293 kts | 93° |
| 2026-04-17 13:09 | 49.99200 | 8.50691 | 10187 ft | 292 kts | 93° |
| 2026-04-17 13:09 | 49.99100 | 8.53848 | 10188 ft | 292 kts | 93° |
| 2026-04-17 13:09 | 49.99003 | 8.57002 | 10185 ft | 293 kts | 94° |
| 2026-04-17 13:09 | 49.98907 | 8.60144 | 9922 ft | 289 kts | 93° |
| 2026-04-17 13:10 | 49.98810 | 8.63259 | 9534 ft | 288 kts | 94° |
| 2026-04-17 13:10 | 49.98716 | 8.66369 | 9127 ft | 288 kts | 94° |
| 2026-04-17 13:10 | 49.98706 | 8.69465 | 8794 ft | 283 kts | 86° |
| 2026-04-17 13:10 | 49.98904 | 8.72415 | 8523 ft | 265 kts | 84° |
| 2026-04-17 13:11 | 49.99131 | 8.75196 | 8031 ft | 255 kts | 83° |
| 2026-04-17 13:11 | 49.99361 | 8.77907 | 7486 ft | 250 kts | 83° |
| 2026-04-17 13:11 | 49.99592 | 8.80573 | 7119 ft | 249 kts | 84° |
| 2026-04-17 13:11 | 49.99824 | 8.83252 | 6488 ft | 250 kts | 83° |
| 2026-04-17 13:12 | 50.00052 | 8.85901 | 5953 ft | 245 kts | 84° |
| 2026-04-17 13:12 | 50.00500 | 8.91110 | 5051 ft | 242 kts | 83° |
| 2026-04-17 13:12 | 50.00715 | 8.93710 | 4991 ft | 242 kts | 84° |
| 2026-04-17 13:13 | 50.00934 | 8.96304 | 4991 ft | 242 kts | 83° |
| 2026-04-17 13:13 | 50.01393 | 8.98807 | 4998 ft | 243 kts | 60° |
| 2026-04-17 13:13 | 50.02550 | 9.00683 | 5001 ft | 242 kts | 32° |
| 2026-04-17 13:13 | 50.04034 | 9.01911 | 5003 ft | 242 kts | 25° |
| 2026-04-17 13:14 | 50.05571 | 9.02992 | 4995 ft | 243 kts | 22° |
| 2026-04-17 13:14 | 50.07184 | 9.03473 | 4595 ft | 234 kts | 355° |
| 2026-04-17 13:14 | 50.08682 | 9.02628 | 4150 ft | 232 kts | 321° |
| 2026-04-17 13:14 | 50.09651 | 9.00655 | 3999 ft | 232 kts | 291° |
| 2026-04-17 13:15 | 50.10166 | 8.98280 | 3994 ft | 231 kts | 284° |
| 2026-04-17 13:15 | 50.10574 | 8.95959 | 3989 ft | 209 kts | 283° |
| 2026-04-17 13:15 | 50.10945 | 8.93863 | 3985 ft | 196 kts | 283° |
| 2026-04-17 13:15 | 50.11305 | 8.91826 | 3988 ft | 193 kts | 281° |
| 2026-04-17 13:16 | 50.11303 | 8.89755 | 3998 ft | 191 kts | 258° |
| 2026-04-17 13:16 | 50.10943 | 8.87765 | 3995 ft | 191 kts | 250° |
| 2026-04-17 13:16 | 50.10487 | 8.85815 | 3971 ft | 191 kts | 249° |
| 2026-04-17 13:16 | 50.10031 | 8.83885 | 3780 ft | 190 kts | 249° |
| 2026-04-17 13:17 | 50.09576 | 8.81968 | 3554 ft | 188 kts | 248° |
| 2026-04-17 13:17 | 50.09120 | 8.80057 | 3258 ft | 191 kts | 249° |
| 2026-04-17 13:17 | 50.08648 | 8.78080 | 2977 ft | 197 kts | 249° |
| 2026-04-17 13:17 | 50.08170 | 8.76076 | 2714 ft | 197 kts | 249° |
| 2026-04-17 13:18 | 50.07707 | 8.74116 | 2424 ft | 191 kts | 249° |
| 2026-04-17 13:18 | 50.07438 | 8.72130 | 2135 ft | 186 kts | 258° |
| 2026-04-17 13:18 | 50.07161 | 8.70255 | 1849 ft | 170 kts | 256° |
| 2026-04-17 13:18 | 50.06850 | 8.68532 | 1578 ft | 157 kts | 252° |
| 2026-04-17 13:19 | 50.06509 | 8.67008 | 1361 ft | 143 kts | 249° |
| 2026-04-17 13:19 | 50.06155 | 8.65606 | 1173 ft | 142 kts | 249° |
| 2026-04-17 13:19 | 50.05741 | 8.64009 | 1034 ft | 161 kts | 250° |
| 2026-04-17 13:19 | 50.05391 | 8.62445 | 876 ft | 148 kts | 252° |
| 2026-04-17 13:20 | 50.05051 | 8.61013 | 691 ft | 135 kts | 251° |
| 2026-04-17 13:20 | 50.04739 | 8.59671 | 526 ft | 130 kts | 250° |
| 2026-04-17 13:20 | 50.04425 | 8.58338 | 398 ft | 132 kts | 253° |
| 2026-04-17 13:20 | 50.04131 | 8.57051 | 371 ft | 112 kts | 250° |
| 2026-04-17 13:21 | 50.03917 | 8.56199 | 361 ft | 39 kts | 251° |
| 2026-04-17 13:21 | 50.03885 | 8.55902 | 359 ft | 27 kts | 273° |
| 2026-04-17 13:21 | 50.03894 | 8.55776 | 360 ft | 10 kts | 279° |
| 2026-04-17 13:21 | 50.03904 | 8.55687 | 360 ft | 0 kts | 279° |
| 2026-04-17 13:22 | 50.03906 | 8.55667 | 356 ft | 4 kts | 279° |
| 2026-04-17 13:23 | 50.03914 | 8.55597 | 354 ft | 9 kts | 279° |
| 2026-04-17 13:23 | 50.03937 | 8.55521 | 362 ft | 2 kts | 338° |
| 2026-04-17 13:23 | 50.03944 | 8.55531 | 360 ft | 1 kts | 37° |
| 2026-04-17 13:23 | 50.03951 | 8.55557 | 355 ft | 6 kts | 66° |
| 2026-04-17 13:24 | 50.03976 | 8.55648 | 363 ft | 11 kts | 68° |
| 2026-04-17 13:24 | 50.04006 | 8.55771 | 362 ft | 13 kts | 70° |
| 2026-04-17 13:24 | 50.04033 | 8.55888 | 363 ft | 0 kts | 70° |
| 2026-04-17 13:30 | 50.04038 | 8.55908 | 362 ft | 5 kts | 69° |
| 2026-04-17 13:30 | 50.04074 | 8.55959 | 361 ft | 8 kts | 13° |
| 2026-04-17 13:30 | 50.04143 | 8.55942 | 364 ft | 13 kts | 340° |
| 2026-04-17 13:30 | 50.04239 | 8.55949 | 361 ft | 15 kts | 19° |
| 2026-04-17 13:31 | 50.04345 | 8.55927 | 367 ft | 16 kts | 342° |
| 2026-04-17 13:31 | 50.04419 | 8.55908 | 368 ft | 17 kts | 3° |
| 2026-04-17 13:31 | 50.04512 | 8.55950 | 367 ft | 15 kts | 18° |
| 2026-04-17 13:31 | 50.04577 | 8.56060 | 369 ft | 10 kts | 69° |
| 2026-04-17 13:32 | 50.04606 | 8.56181 | 366 ft | 14 kts | 70° |
| 2026-04-17 13:32 | 50.04643 | 8.56333 | 364 ft | 17 kts | 69° |
| 2026-04-17 13:32 | 50.04690 | 8.56508 | 369 ft | 17 kts | 49° |
| 2026-04-17 13:32 | 50.04732 | 8.56522 | 368 ft | 6 kts | 349° |